sensor_id;sensor_type;location;lat;lon;timestamp;P1;durP1;ratioP1;P2;durP2;ratioP2
12768;SDS011;6448;48.916;8.990;2023-04-25T00:01:00;1.20;;;1.10;;
12768;SDS011;6448;48.916;8.990;2023-04-25T00:02:03;1.30;;;1.20;;
12768;SDS011;6448;48.916;8.990;2023-04-25T00:03:05;1.30;;;1.20;;
12768;SDS011;6448;48.916;8.990;2023-04-25T00:04:06;1.45;;;1.10;;
12768;SDS011;6448;48.916;8.990;2023-04-25T00:05:08;1.50;;;1.17;;
12768;SDS011;6448;48.916;8.990;2023-04-25T00:06:09;1.30;;;1.20;;
12768;SDS011;6448;48.916;8.990;2023-04-25T00:07:11;1.30;;;1.20;;
12768;SDS011;6448;48.916;8.990;2023-04-25T00:08:12;1.30;;;1.20;;
12768;SDS011;6448;48.916;8.990;2023-04-25T00:09:14;1.80;;;1.10;;
12768;SDS011;6448;48.916;8.990;2023-04-25T00:10:15;1.20;;;1.10;;
12768;SDS011;6448;48.916;8.990;2023-04-25T00:11:17;1.20;;;1.10;;
12768;SDS011;6448;48.916;8.990;2023-04-25T00:12:18;1.30;;;1.20;;
12768;SDS011;6448;48.916;8.990;2023-04-25T00:13:20;1.25;;;1.15;;
12768;SDS011;6448;48.916;8.990;2023-04-25T00:14:21;1.40;;;1.30;;
12768;SDS011;6448;48.916;8.990;2023-04-25T00:15:23;1.35;;;1.25;;
12768;SDS011;6448;48.916;8.990;2023-04-25T00:16:24;1.30;;;1.20;;
12768;SDS011;6448;48.916;8.990;2023-04-25T00:17:28;1.20;;;1.10;;
12768;SDS011;6448;48.916;8.990;2023-04-25T00:18:29;1.23;;;1.10;;
12768;SDS011;6448;48.916;8.990;2023-04-25T00:19:33;1.60;;;1.30;;
12768;SDS011;6448;48.916;8.990;2023-04-25T00:20:35;1.43;;;1.20;;
12768;SDS011;6448;48.916;8.990;2023-04-25T00:21:36;1.23;;;1.10;;
12768;SDS011;6448;48.916;8.990;2023-04-25T00:22:40;1.30;;;1.20;;
12768;SDS011;6448;48.916;8.990;2023-04-25T00:23:42;1.40;;;1.30;;
12768;SDS011;6448;48.916;8.990;2023-04-25T00:24:42;1.17;;;1.07;;
12768;SDS011;6448;48.916;8.990;2023-04-25T00:25:44;1.30;;;1.10;;
12768;SDS011;6448;48.916;8.990;2023-04-25T00:26:46;1.00;;;1.00;;
12768;SDS011;6448;48.916;8.990;2023-04-25T00:27:48;1.20;;;1.10;;
12768;SDS011;6448;48.916;8.990;2023-04-25T00:28:49;1.40;;;1.30;;
12768;SDS011;6448;48.916;8.990;2023-04-25T00:29:50;1.17;;;1.10;;
12768;SDS011;6448;48.916;8.990;2023-04-25T00:30:51;1.30;;;1.20;;
12768;SDS011;6448;48.916;8.990;2023-04-25T00:31:53;1.27;;;1.17;;
12768;SDS011;6448;48.916;8.990;2023-04-25T00:32:55;1.30;;;1.20;;
12768;SDS011;6448;48.916;8.990;2023-04-25T00:33:57;1.98;;;1.30;;
12768;SDS011;6448;48.916;8.990;2023-04-25T00:34:58;1.40;;;1.20;;
12768;SDS011;6448;48.916;8.990;2023-04-25T00:35:59;1.38;;;1.27;;
12768;SDS011;6448;48.916;8.990;2023-04-25T00:37:00;1.00;;;1.00;;
12768;SDS011;6448;48.916;8.990;2023-04-25T00:38:02;1.30;;;1.20;;
12768;SDS011;6448;48.916;8.990;2023-04-25T00:39:03;1.35;;;1.25;;
12768;SDS011;6448;48.916;8.990;2023-04-25T00:40:06;1.20;;;1.10;;
12768;SDS011;6448;48.916;8.990;2023-04-25T00:41:08;1.15;;;1.05;;
12768;SDS011;6448;48.916;8.990;2023-04-25T00:42:10;1.35;;;1.25;;
12768;SDS011;6448;48.916;8.990;2023-04-25T00:43:12;1.10;;;1.10;;
12768;SDS011;6448;48.916;8.990;2023-04-25T00:44:14;1.77;;;1.20;;
12768;SDS011;6448;48.916;8.990;2023-04-25T00:45:17;1.30;;;1.20;;
12768;SDS011;6448;48.916;8.990;2023-04-25T00:46:19;1.30;;;1.20;;
12768;SDS011;6448;48.916;8.990;2023-04-25T00:47:20;1.40;;;1.30;;
12768;SDS011;6448;48.916;8.990;2023-04-25T00:48:24;1.20;;;1.10;;
12768;SDS011;6448;48.916;8.990;2023-04-25T00:49:25;1.48;;;1.38;;
12768;SDS011;6448;48.916;8.990;2023-04-25T00:50:27;1.40;;;1.30;;
12768;SDS011;6448;48.916;8.990;2023-04-25T00:51:28;1.23;;;1.13;;
12768;SDS011;6448;48.916;8.990;2023-04-25T00:52:31;1.30;;;1.20;;
12768;SDS011;6448;48.916;8.990;2023-04-25T00:53:32;1.33;;;1.23;;
12768;SDS011;6448;48.916;8.990;2023-04-25T00:54:34;1.40;;;1.30;;
12768;SDS011;6448;48.916;8.990;2023-04-25T00:55:35;1.30;;;1.20;;
12768;SDS011;6448;48.916;8.990;2023-04-25T00:56:37;1.40;;;1.30;;
12768;SDS011;6448;48.916;8.990;2023-04-25T00:57:38;1.27;;;1.17;;
12768;SDS011;6448;48.916;8.990;2023-04-25T00:58:40;1.20;;;1.10;;
12768;SDS011;6448;48.916;8.990;2023-04-25T00:59:42;1.40;;;1.23;;
12768;SDS011;6448;48.916;8.990;2023-04-25T01:00:47;1.30;;;1.20;;
12768;SDS011;6448;48.916;8.990;2023-04-25T01:01:49;1.40;;;1.30;;
12768;SDS011;6448;48.916;8.990;2023-04-25T01:02:51;1.20;;;1.10;;
12768;SDS011;6448;48.916;8.990;2023-04-25T01:03:53;1.30;;;1.20;;
12768;SDS011;6448;48.916;8.990;2023-04-25T01:04:55;1.30;;;1.20;;
12768;SDS011;6448;48.916;8.990;2023-04-25T01:05:56;1.48;;;1.38;;
12768;SDS011;6448;48.916;8.990;2023-04-25T01:06:58;1.40;;;1.30;;
12768;SDS011;6448;48.916;8.990;2023-04-25T01:07:59;1.20;;;1.10;;
12768;SDS011;6448;48.916;8.990;2023-04-25T01:09:01;1.30;;;1.20;;
12768;SDS011;6448;48.916;8.990;2023-04-25T01:10:05;1.50;;;1.40;;
12768;SDS011;6448;48.916;8.990;2023-04-25T01:11:07;1.45;;;1.35;;
12768;SDS011;6448;48.916;8.990;2023-04-25T01:12:08;1.42;;;1.33;;
12768;SDS011;6448;48.916;8.990;2023-04-25T01:13:10;1.30;;;1.20;;
12768;SDS011;6448;48.916;8.990;2023-04-25T01:14:11;1.40;;;1.30;;
12768;SDS011;6448;48.916;8.990;2023-04-25T01:15:13;1.40;;;1.30;;
12768;SDS011;6448;48.916;8.990;2023-04-25T01:16:13;1.40;;;1.30;;
12768;SDS011;6448;48.916;8.990;2023-04-25T01:17:16;1.40;;;1.30;;
12768;SDS011;6448;48.916;8.990;2023-04-25T01:18:18;1.50;;;1.40;;
12768;SDS011;6448;48.916;8.990;2023-04-25T01:19:21;1.30;;;1.20;;
12768;SDS011;6448;48.916;8.990;2023-04-25T01:20:23;1.40;;;1.30;;
12768;SDS011;6448;48.916;8.990;2023-04-25T01:21:28;1.40;;;1.30;;
12768;SDS011;6448;48.916;8.990;2023-04-25T01:22:31;1.40;;;1.30;;
12768;SDS011;6448;48.916;8.990;2023-04-25T01:23:33;1.40;;;1.30;;
12768;SDS011;6448;48.916;8.990;2023-04-25T01:24:33;1.48;;;1.38;;
12768;SDS011;6448;48.916;8.990;2023-04-25T01:25:36;1.40;;;1.30;;
12768;SDS011;6448;48.916;8.990;2023-04-25T01:26:37;1.40;;;1.30;;
12768;SDS011;6448;48.916;8.990;2023-04-25T01:27:41;1.40;;;1.30;;
12768;SDS011;6448;48.916;8.990;2023-04-25T01:28:42;1.40;;;1.30;;
12768;SDS011;6448;48.916;8.990;2023-04-25T01:29:45;1.48;;;1.38;;
12768;SDS011;6448;48.916;8.990;2023-04-25T01:30:46;1.50;;;1.40;;
12768;SDS011;6448;48.916;8.990;2023-04-25T01:31:49;1.30;;;1.20;;
12768;SDS011;6448;48.916;8.990;2023-04-25T01:32:51;1.40;;;1.30;;
12768;SDS011;6448;48.916;8.990;2023-04-25T01:33:55;1.50;;;1.40;;
12768;SDS011;6448;48.916;8.990;2023-04-25T01:34:57;1.50;;;1.40;;
12768;SDS011;6448;48.916;8.990;2023-04-25T01:36:00;1.50;;;1.40;;
12768;SDS011;6448;48.916;8.990;2023-04-25T01:37:02;1.40;;;1.30;;
12768;SDS011;6448;48.916;8.990;2023-04-25T01:38:04;1.30;;;1.20;;
12768;SDS011;6448;48.916;8.990;2023-04-25T01:39:06;1.40;;;1.30;;
12768;SDS011;6448;48.916;8.990;2023-04-25T01:40:09;1.40;;;1.30;;
12768;SDS011;6448;48.916;8.990;2023-04-25T01:41:11;1.50;;;1.40;;
12768;SDS011;6448;48.916;8.990;2023-04-25T01:42:13;1.30;;;1.20;;
12768;SDS011;6448;48.916;8.990;2023-04-25T01:43:15;1.50;;;1.40;;
12768;SDS011;6448;48.916;8.990;2023-04-25T01:44:16;1.48;;;1.38;;
12768;SDS011;6448;48.916;8.990;2023-04-25T01:45:17;1.40;;;1.30;;
12768;SDS011;6448;48.916;8.990;2023-04-25T01:46:19;1.50;;;1.40;;
12768;SDS011;6448;48.916;8.990;2023-04-25T01:47:20;1.42;;;1.33;;
12768;SDS011;6448;48.916;8.990;2023-04-25T01:48:22;1.52;;;1.42;;
12768;SDS011;6448;48.916;8.990;2023-04-25T01:49:23;1.38;;;1.27;;
12768;SDS011;6448;48.916;8.990;2023-04-25T01:50:25;1.40;;;1.30;;
12768;SDS011;6448;48.916;8.990;2023-04-25T01:51:25;1.50;;;1.40;;
12768;SDS011;6448;48.916;8.990;2023-04-25T01:52:29;1.40;;;1.30;;
12768;SDS011;6448;48.916;8.990;2023-04-25T01:53:30;1.48;;;1.38;;
12768;SDS011;6448;48.916;8.990;2023-04-25T01:54:34;1.48;;;1.38;;
12768;SDS011;6448;48.916;8.990;2023-04-25T01:55:35;1.77;;;1.50;;
12768;SDS011;6448;48.916;8.990;2023-04-25T01:56:43;1.40;;;1.30;;
12768;SDS011;6448;48.916;8.990;2023-04-25T01:57:49;1.70;;;1.42;;
12768;SDS011;6448;48.916;8.990;2023-04-25T01:58:54;1.40;;;1.30;;
12768;SDS011;6448;48.916;8.990;2023-04-25T02:00:10;1.50;;;1.40;;
12768;SDS011;6448;48.916;8.990;2023-04-25T02:01:13;1.50;;;1.40;;
12768;SDS011;6448;48.916;8.990;2023-04-25T02:02:20;1.50;;;1.40;;
12768;SDS011;6448;48.916;8.990;2023-04-25T02:03:22;1.88;;;1.50;;
12768;SDS011;6448;48.916;8.990;2023-04-25T02:04:23;1.40;;;1.30;;
12768;SDS011;6448;48.916;8.990;2023-04-25T02:05:25;1.50;;;1.40;;
12768;SDS011;6448;48.916;8.990;2023-04-25T02:06:26;1.50;;;1.40;;
12768;SDS011;6448;48.916;8.990;2023-04-25T02:07:32;1.75;;;1.30;;
12768;SDS011;6448;48.916;8.990;2023-04-25T02:08:32;1.40;;;1.30;;
12768;SDS011;6448;48.916;8.990;2023-04-25T02:09:34;1.90;;;1.50;;
12768;SDS011;6448;48.916;8.990;2023-04-25T02:10:39;1.50;;;1.40;;
12768;SDS011;6448;48.916;8.990;2023-04-25T02:11:48;1.35;;;1.25;;
12768;SDS011;6448;48.916;8.990;2023-04-25T02:12:58;1.40;;;1.27;;
12768;SDS011;6448;48.916;8.990;2023-04-25T02:14:13;1.40;;;1.30;;
12768;SDS011;6448;48.916;8.990;2023-04-25T02:15:20;1.40;;;1.30;;
12768;SDS011;6448;48.916;8.990;2023-04-25T02:16:25;1.40;;;1.30;;
12768;SDS011;6448;48.916;8.990;2023-04-25T02:17:26;1.30;;;1.20;;
12768;SDS011;6448;48.916;8.990;2023-04-25T02:18:28;1.40;;;1.30;;
12768;SDS011;6448;48.916;8.990;2023-04-25T02:19:29;1.38;;;1.27;;
12768;SDS011;6448;48.916;8.990;2023-04-25T02:20:31;1.30;;;1.20;;
12768;SDS011;6448;48.916;8.990;2023-04-25T02:21:34;1.30;;;1.20;;
12768;SDS011;6448;48.916;8.990;2023-04-25T02:22:37;1.40;;;1.30;;
12768;SDS011;6448;48.916;8.990;2023-04-25T02:23:40;1.50;;;1.30;;
12768;SDS011;6448;48.916;8.990;2023-04-25T02:24:40;1.38;;;1.27;;
12768;SDS011;6448;48.916;8.990;2023-04-25T02:25:42;1.85;;;1.45;;
12768;SDS011;6448;48.916;8.990;2023-04-25T02:26:43;1.30;;;1.20;;
12768;SDS011;6448;48.916;8.990;2023-04-25T02:27:46;1.30;;;1.20;;
12768;SDS011;6448;48.916;8.990;2023-04-25T02:28:48;1.50;;;1.40;;
12768;SDS011;6448;48.916;8.990;2023-04-25T02:29:49;1.50;;;1.40;;
12768;SDS011;6448;48.916;8.990;2023-04-25T02:30:50;1.50;;;1.40;;
12768;SDS011;6448;48.916;8.990;2023-04-25T02:31:52;1.40;;;1.30;;
12768;SDS011;6448;48.916;8.990;2023-04-25T02:32:53;1.75;;;1.50;;
12768;SDS011;6448;48.916;8.990;2023-04-25T02:33:55;1.50;;;1.40;;
12768;SDS011;6448;48.916;8.990;2023-04-25T02:34:56;1.38;;;1.27;;
12768;SDS011;6448;48.916;8.990;2023-04-25T02:36:00;1.50;;;1.40;;
12768;SDS011;6448;48.916;8.990;2023-04-25T02:37:01;1.30;;;1.20;;
12768;SDS011;6448;48.916;8.990;2023-04-25T02:38:04;1.50;;;1.40;;
12768;SDS011;6448;48.916;8.990;2023-04-25T02:39:07;1.40;;;1.30;;
12768;SDS011;6448;48.916;8.990;2023-04-25T02:40:09;1.33;;;1.23;;
12768;SDS011;6448;48.916;8.990;2023-04-25T02:41:10;1.40;;;1.30;;
12768;SDS011;6448;48.916;8.990;2023-04-25T02:42:12;1.40;;;1.30;;
12768;SDS011;6448;48.916;8.990;2023-04-25T02:43:12;1.37;;;1.27;;
12768;SDS011;6448;48.916;8.990;2023-04-25T02:44:16;1.40;;;1.30;;
12768;SDS011;6448;48.916;8.990;2023-04-25T02:45:18;1.30;;;1.20;;
12768;SDS011;6448;48.916;8.990;2023-04-25T02:46:20;1.52;;;1.42;;
12768;SDS011;6448;48.916;8.990;2023-04-25T02:47:21;1.40;;;1.30;;
12768;SDS011;6448;48.916;8.990;2023-04-25T02:48:23;1.60;;;1.50;;
12768;SDS011;6448;48.916;8.990;2023-04-25T02:49:24;1.60;;;1.40;;
12768;SDS011;6448;48.916;8.990;2023-04-25T02:50:26;1.50;;;1.40;;
12768;SDS011;6448;48.916;8.990;2023-04-25T02:51:27;1.50;;;1.40;;
12768;SDS011;6448;48.916;8.990;2023-04-25T02:52:30;1.58;;;1.40;;
12768;SDS011;6448;48.916;8.990;2023-04-25T02:53:40;1.30;;;1.20;;
12768;SDS011;6448;48.916;8.990;2023-04-25T02:54:42;1.30;;;1.20;;
12768;SDS011;6448;48.916;8.990;2023-04-25T02:55:43;1.40;;;1.30;;
12768;SDS011;6448;48.916;8.990;2023-04-25T02:56:45;1.60;;;1.35;;
12768;SDS011;6448;48.916;8.990;2023-04-25T02:57:52;1.50;;;1.40;;
12768;SDS011;6448;48.916;8.990;2023-04-25T02:59:06;1.50;;;1.40;;
12768;SDS011;6448;48.916;8.990;2023-04-25T03:00:08;1.40;;;1.30;;
12768;SDS011;6448;48.916;8.990;2023-04-25T03:01:12;1.50;;;1.40;;
12768;SDS011;6448;48.916;8.990;2023-04-25T03:02:13;1.63;;;1.52;;
12768;SDS011;6448;48.916;8.990;2023-04-25T03:03:14;1.60;;;1.50;;
12768;SDS011;6448;48.916;8.990;2023-04-25T03:04:18;1.60;;;1.50;;
12768;SDS011;6448;48.916;8.990;2023-04-25T03:05:21;1.95;;;1.60;;
12768;SDS011;6448;48.916;8.990;2023-04-25T03:06:22;1.60;;;1.50;;
12768;SDS011;6448;48.916;8.990;2023-04-25T03:07:23;1.60;;;1.50;;
12768;SDS011;6448;48.916;8.990;2023-04-25T03:08:25;1.70;;;1.60;;
12768;SDS011;6448;48.916;8.990;2023-04-25T03:09:32;1.60;;;1.50;;
12768;SDS011;6448;48.916;8.990;2023-04-25T03:10:33;1.70;;;1.60;;
12768;SDS011;6448;48.916;8.990;2023-04-25T03:11:38;1.60;;;1.50;;
12768;SDS011;6448;48.916;8.990;2023-04-25T03:12:40;1.65;;;1.55;;
12768;SDS011;6448;48.916;8.990;2023-04-25T03:13:42;1.45;;;1.35;;
12768;SDS011;6448;48.916;8.990;2023-04-25T03:14:44;1.50;;;1.40;;
12768;SDS011;6448;48.916;8.990;2023-04-25T03:15:46;1.63;;;1.40;;
12768;SDS011;6448;48.916;8.990;2023-04-25T03:16:47;1.60;;;1.50;;
12768;SDS011;6448;48.916;8.990;2023-04-25T03:17:51;2.08;;;1.50;;
12768;SDS011;6448;48.916;8.990;2023-04-25T03:18:51;1.60;;;1.50;;
12768;SDS011;6448;48.916;8.990;2023-04-25T03:19:53;1.70;;;1.60;;
12768;SDS011;6448;48.916;8.990;2023-04-25T03:20:54;1.80;;;1.60;;
12768;SDS011;6448;48.916;8.990;2023-04-25T03:21:56;1.55;;;1.45;;
12768;SDS011;6448;48.916;8.990;2023-04-25T03:22:57;1.60;;;1.50;;
12768;SDS011;6448;48.916;8.990;2023-04-25T03:23:59;1.73;;;1.63;;
12768;SDS011;6448;48.916;8.990;2023-04-25T03:25:02;1.63;;;1.52;;
12768;SDS011;6448;48.916;8.990;2023-04-25T03:26:05;2.10;;;1.65;;
12768;SDS011;6448;48.916;8.990;2023-04-25T03:27:06;1.73;;;1.63;;
12768;SDS011;6448;48.916;8.990;2023-04-25T03:28:08;1.67;;;1.58;;
12768;SDS011;6448;48.916;8.990;2023-04-25T03:29:08;1.65;;;1.55;;
12768;SDS011;6448;48.916;8.990;2023-04-25T03:30:12;1.70;;;1.60;;
12768;SDS011;6448;48.916;8.990;2023-04-25T03:31:14;1.70;;;1.60;;
12768;SDS011;6448;48.916;8.990;2023-04-25T03:32:16;1.63;;;1.52;;
12768;SDS011;6448;48.916;8.990;2023-04-25T03:33:17;1.73;;;1.55;;
12768;SDS011;6448;48.916;8.990;2023-04-25T03:34:19;1.80;;;1.70;;
12768;SDS011;6448;48.916;8.990;2023-04-25T03:35:21;1.70;;;1.60;;
12768;SDS011;6448;48.916;8.990;2023-04-25T03:36:23;1.73;;;1.63;;
12768;SDS011;6448;48.916;8.990;2023-04-25T03:37:25;1.92;;;1.70;;
12768;SDS011;6448;48.916;8.990;2023-04-25T03:38:26;2.00;;;1.75;;
12768;SDS011;6448;48.916;8.990;2023-04-25T03:39:28;1.80;;;1.70;;
12768;SDS011;6448;48.916;8.990;2023-04-25T03:40:31;1.90;;;1.80;;
12768;SDS011;6448;48.916;8.990;2023-04-25T03:41:42;1.90;;;1.80;;
12768;SDS011;6448;48.916;8.990;2023-04-25T03:42:47;1.73;;;1.63;;
12768;SDS011;6448;48.916;8.990;2023-04-25T03:43:48;1.80;;;1.70;;
12768;SDS011;6448;48.916;8.990;2023-04-25T03:44:51;1.90;;;1.80;;
12768;SDS011;6448;48.916;8.990;2023-04-25T03:45:53;1.67;;;1.58;;
12768;SDS011;6448;48.916;8.990;2023-04-25T03:46:56;1.80;;;1.70;;
12768;SDS011;6448;48.916;8.990;2023-04-25T03:47:58;1.85;;;1.75;;
12768;SDS011;6448;48.916;8.990;2023-04-25T03:49:01;1.77;;;1.67;;
12768;SDS011;6448;48.916;8.990;2023-04-25T03:50:21;1.92;;;1.83;;
12768;SDS011;6448;48.916;8.990;2023-04-25T03:51:22;1.92;;;1.83;;
12768;SDS011;6448;48.916;8.990;2023-04-25T03:52:23;1.80;;;1.70;;
12768;SDS011;6448;48.916;8.990;2023-04-25T03:53:25;2.10;;;1.90;;
12768;SDS011;6448;48.916;8.990;2023-04-25T03:54:47;1.73;;;1.63;;
12768;SDS011;6448;48.916;8.990;2023-04-25T03:55:53;1.80;;;1.70;;
12768;SDS011;6448;48.916;8.990;2023-04-25T03:56:55;1.80;;;1.70;;
12768;SDS011;6448;48.916;8.990;2023-04-25T03:58:00;2.10;;;1.90;;
12768;SDS011;6448;48.916;8.990;2023-04-25T03:59:01;1.80;;;1.70;;
12768;SDS011;6448;48.916;8.990;2023-04-25T04:00:04;1.73;;;1.63;;
12768;SDS011;6448;48.916;8.990;2023-04-25T04:01:13;1.95;;;1.75;;
12768;SDS011;6448;48.916;8.990;2023-04-25T04:02:14;1.90;;;1.80;;
12768;SDS011;6448;48.916;8.990;2023-04-25T04:03:17;2.17;;;1.67;;
12768;SDS011;6448;48.916;8.990;2023-04-25T04:04:17;1.80;;;1.70;;
12768;SDS011;6448;48.916;8.990;2023-04-25T04:05:19;1.80;;;1.70;;
12768;SDS011;6448;48.916;8.990;2023-04-25T04:06:27;1.97;;;1.77;;
12768;SDS011;6448;48.916;8.990;2023-04-25T04:07:37;1.85;;;1.75;;
12768;SDS011;6448;48.916;8.990;2023-04-25T04:08:41;1.85;;;1.75;;
12768;SDS011;6448;48.916;8.990;2023-04-25T04:09:44;1.85;;;1.75;;
12768;SDS011;6448;48.916;8.990;2023-04-25T04:10:51;1.80;;;1.70;;
12768;SDS011;6448;48.916;8.990;2023-04-25T04:11:54;1.80;;;1.70;;
12768;SDS011;6448;48.916;8.990;2023-04-25T04:12:55;1.95;;;1.80;;
12768;SDS011;6448;48.916;8.990;2023-04-25T04:13:57;2.05;;;1.95;;
12768;SDS011;6448;48.916;8.990;2023-04-25T04:14:58;1.75;;;1.65;;
12768;SDS011;6448;48.916;8.990;2023-04-25T04:16:00;2.00;;;1.90;;
12768;SDS011;6448;48.916;8.990;2023-04-25T04:17:01;1.95;;;1.85;;
12768;SDS011;6448;48.916;8.990;2023-04-25T04:18:03;1.90;;;1.80;;
12768;SDS011;6448;48.916;8.990;2023-04-25T04:19:04;1.90;;;1.80;;
12768;SDS011;6448;48.916;8.990;2023-04-25T04:20:07;1.80;;;1.70;;
12768;SDS011;6448;48.916;8.990;2023-04-25T04:21:08;1.92;;;1.83;;
12768;SDS011;6448;48.916;8.990;2023-04-25T04:22:13;1.80;;;1.70;;
12768;SDS011;6448;48.916;8.990;2023-04-25T04:23:14;1.80;;;1.70;;
12768;SDS011;6448;48.916;8.990;2023-04-25T04:24:18;1.90;;;1.80;;
12768;SDS011;6448;48.916;8.990;2023-04-25T04:25:34;1.80;;;1.70;;
12768;SDS011;6448;48.916;8.990;2023-04-25T04:26:55;2.00;;;1.80;;
12768;SDS011;6448;48.916;8.990;2023-04-25T04:28:07;2.05;;;1.80;;
12768;SDS011;6448;48.916;8.990;2023-04-25T04:29:26;1.90;;;1.80;;
12768;SDS011;6448;48.916;8.990;2023-04-25T04:30:34;1.92;;;1.83;;
12768;SDS011;6448;48.916;8.990;2023-04-25T04:31:40;1.80;;;1.70;;
12768;SDS011;6448;48.916;8.990;2023-04-25T04:32:41;1.80;;;1.70;;
12768;SDS011;6448;48.916;8.990;2023-04-25T04:33:43;1.63;;;1.53;;
12768;SDS011;6448;48.916;8.990;2023-04-25T04:34:44;1.80;;;1.70;;
12768;SDS011;6448;48.916;8.990;2023-04-25T04:35:50;1.80;;;1.70;;
12768;SDS011;6448;48.916;8.990;2023-04-25T04:36:52;2.20;;;2.00;;
12768;SDS011;6448;48.916;8.990;2023-04-25T04:37:55;1.98;;;1.88;;
12768;SDS011;6448;48.916;8.990;2023-04-25T04:38:58;1.80;;;1.70;;
12768;SDS011;6448;48.916;8.990;2023-04-25T04:40:16;2.10;;;1.90;;
12768;SDS011;6448;48.916;8.990;2023-04-25T04:41:26;1.80;;;1.70;;
12768;SDS011;6448;48.916;8.990;2023-04-25T04:42:50;1.88;;;1.67;;
12768;SDS011;6448;48.916;8.990;2023-04-25T04:44:11;1.73;;;1.60;;
12768;SDS011;6448;48.916;8.990;2023-04-25T04:45:36;1.60;;;1.50;;
12768;SDS011;6448;48.916;8.990;2023-04-25T04:46:44;1.67;;;1.58;;
12768;SDS011;6448;48.916;8.990;2023-04-25T04:48:06;1.77;;;1.67;;
12768;SDS011;6448;48.916;8.990;2023-04-25T04:49:28;1.95;;;1.75;;
12768;SDS011;6448;48.916;8.990;2023-04-25T04:50:43;1.70;;;1.60;;
12768;SDS011;6448;48.916;8.990;2023-04-25T04:51:53;2.05;;;1.90;;
12768;SDS011;6448;48.916;8.990;2023-04-25T04:53:24;1.90;;;1.80;;
12768;SDS011;6448;48.916;8.990;2023-04-25T04:54:36;1.80;;;1.70;;
12768;SDS011;6448;48.916;8.990;2023-04-25T04:56:05;1.80;;;1.70;;
12768;SDS011;6448;48.916;8.990;2023-04-25T04:57:24;1.90;;;1.80;;
12768;SDS011;6448;48.916;8.990;2023-04-25T04:58:45;1.70;;;1.60;;
12768;SDS011;6448;48.916;8.990;2023-04-25T05:00:20;2.10;;;2.00;;
12768;SDS011;6448;48.916;8.990;2023-04-25T05:01:40;2.05;;;1.85;;
12768;SDS011;6448;48.916;8.990;2023-04-25T05:02:55;1.95;;;1.85;;
12768;SDS011;6448;48.916;8.990;2023-04-25T05:04:13;1.92;;;1.83;;
12768;SDS011;6448;48.916;8.990;2023-04-25T05:05:32;1.90;;;1.80;;
12768;SDS011;6448;48.916;8.990;2023-04-25T05:06:52;2.20;;;2.00;;
12768;SDS011;6448;48.916;8.990;2023-04-25T05:08:16;1.90;;;1.80;;
12768;SDS011;6448;48.916;8.990;2023-04-25T05:09:36;1.98;;;1.88;;
12768;SDS011;6448;48.916;8.990;2023-04-25T05:11:00;1.83;;;1.73;;
12768;SDS011;6448;48.916;8.990;2023-04-25T05:12:14;1.90;;;1.80;;
12768;SDS011;6448;48.916;8.990;2023-04-25T05:13:24;2.20;;;2.00;;
12768;SDS011;6448;48.916;8.990;2023-04-25T05:14:38;1.98;;;1.88;;
12768;SDS011;6448;48.916;8.990;2023-04-25T05:15:46;1.90;;;1.80;;
12768;SDS011;6448;48.916;8.990;2023-04-25T05:16:56;1.80;;;1.70;;
12768;SDS011;6448;48.916;8.990;2023-04-25T05:18:08;1.80;;;1.70;;
12768;SDS011;6448;48.916;8.990;2023-04-25T05:19:34;2.10;;;1.90;;
12768;SDS011;6448;48.916;8.990;2023-04-25T05:20:54;1.90;;;1.80;;
12768;SDS011;6448;48.916;8.990;2023-04-25T05:22:09;1.80;;;1.70;;
12768;SDS011;6448;48.916;8.990;2023-04-25T05:23:22;1.83;;;1.73;;
12768;SDS011;6448;48.916;8.990;2023-04-25T05:24:33;1.70;;;1.60;;
12768;SDS011;6448;48.916;8.990;2023-04-25T05:25:46;1.90;;;1.80;;
12768;SDS011;6448;48.916;8.990;2023-04-25T05:26:55;1.75;;;1.65;;
12768;SDS011;6448;48.916;8.990;2023-04-25T05:27:56;1.83;;;1.73;;
12768;SDS011;6448;48.916;8.990;2023-04-25T05:29:13;1.90;;;1.80;;
12768;SDS011;6448;48.916;8.990;2023-04-25T05:30:35;1.83;;;1.65;;
12768;SDS011;6448;48.916;8.990;2023-04-25T05:31:43;1.90;;;1.80;;
12768;SDS011;6448;48.916;8.990;2023-04-25T05:32:48;2.00;;;1.85;;
12768;SDS011;6448;48.916;8.990;2023-04-25T05:33:50;2.00;;;1.90;;
12768;SDS011;6448;48.916;8.990;2023-04-25T05:34:53;1.80;;;1.70;;
12768;SDS011;6448;48.916;8.990;2023-04-25T05:36:01;2.20;;;2.00;;
12768;SDS011;6448;48.916;8.990;2023-04-25T05:37:02;2.40;;;2.20;;
12768;SDS011;6448;48.916;8.990;2023-04-25T05:38:05;2.30;;;2.10;;
12768;SDS011;6448;48.916;8.990;2023-04-25T05:39:26;2.10;;;1.90;;
12768;SDS011;6448;48.916;8.990;2023-04-25T05:40:41;2.08;;;1.98;;
12768;SDS011;6448;48.916;8.990;2023-04-25T05:41:54;2.00;;;1.90;;
12768;SDS011;6448;48.916;8.990;2023-04-25T05:43:15;2.28;;;2.10;;
12768;SDS011;6448;48.916;8.990;2023-04-25T05:44:24;2.75;;;2.38;;
12768;SDS011;6448;48.916;8.990;2023-04-25T05:45:45;2.13;;;2.03;;
12768;SDS011;6448;48.916;8.990;2023-04-25T05:47:25;1.90;;;1.80;;
12768;SDS011;6448;48.916;8.990;2023-04-25T05:48:53;2.00;;;1.90;;
12768;SDS011;6448;48.916;8.990;2023-04-25T05:50:14;1.98;;;1.88;;
12768;SDS011;6448;48.916;8.990;2023-04-25T05:51:33;1.65;;;1.55;;
12768;SDS011;6448;48.916;8.990;2023-04-25T05:52:54;2.03;;;1.90;;
12768;SDS011;6448;48.916;8.990;2023-04-25T05:53:59;1.80;;;1.70;;
12768;SDS011;6448;48.916;8.990;2023-04-25T05:55:01;2.00;;;1.90;;
12768;SDS011;6448;48.916;8.990;2023-04-25T05:56:04;1.77;;;1.63;;
12768;SDS011;6448;48.916;8.990;2023-04-25T05:57:06;2.00;;;1.90;;
12768;SDS011;6448;48.916;8.990;2023-04-25T05:58:08;1.90;;;1.80;;
12768;SDS011;6448;48.916;8.990;2023-04-25T05:59:09;2.00;;;1.90;;
12768;SDS011;6448;48.916;8.990;2023-04-25T06:00:11;1.90;;;1.80;;
12768;SDS011;6448;48.916;8.990;2023-04-25T06:01:19;1.90;;;1.80;;
12768;SDS011;6448;48.916;8.990;2023-04-25T06:02:20;1.80;;;1.70;;
12768;SDS011;6448;48.916;8.990;2023-04-25T06:03:23;1.80;;;1.70;;
12768;SDS011;6448;48.916;8.990;2023-04-25T06:04:24;1.70;;;1.60;;
12768;SDS011;6448;48.916;8.990;2023-04-25T06:05:28;1.90;;;1.80;;
12768;SDS011;6448;48.916;8.990;2023-04-25T06:06:29;1.73;;;1.63;;
12768;SDS011;6448;48.916;8.990;2023-04-25T06:07:33;1.80;;;1.70;;
12768;SDS011;6448;48.916;8.990;2023-04-25T06:08:34;1.80;;;1.70;;
12768;SDS011;6448;48.916;8.990;2023-04-25T06:09:37;1.90;;;1.80;;
12768;SDS011;6448;48.916;8.990;2023-04-25T06:10:39;1.70;;;1.60;;
12768;SDS011;6448;48.916;8.990;2023-04-25T06:11:41;1.70;;;1.60;;
12768;SDS011;6448;48.916;8.990;2023-04-25T06:12:42;1.80;;;1.70;;
12768;SDS011;6448;48.916;8.990;2023-04-25T06:13:45;1.80;;;1.70;;
12768;SDS011;6448;48.916;8.990;2023-04-25T06:14:46;1.75;;;1.65;;
12768;SDS011;6448;48.916;8.990;2023-04-25T06:15:48;1.80;;;1.70;;
12768;SDS011;6448;48.916;8.990;2023-04-25T06:16:50;1.45;;;1.35;;
12768;SDS011;6448;48.916;8.990;2023-04-25T06:17:52;1.60;;;1.50;;
12768;SDS011;6448;48.916;8.990;2023-04-25T06:18:53;1.77;;;1.67;;
12768;SDS011;6448;48.916;8.990;2023-04-25T06:19:54;1.80;;;1.70;;
12768;SDS011;6448;48.916;8.990;2023-04-25T06:20:55;1.50;;;1.40;;
12768;SDS011;6448;48.916;8.990;2023-04-25T06:21:57;1.75;;;1.65;;
12768;SDS011;6448;48.916;8.990;2023-04-25T06:22:58;1.60;;;1.50;;
12768;SDS011;6448;48.916;8.990;2023-04-25T06:24:10;1.70;;;1.60;;
12768;SDS011;6448;48.916;8.990;2023-04-25T06:25:11;1.80;;;1.70;;
12768;SDS011;6448;48.916;8.990;2023-04-25T06:26:12;1.60;;;1.50;;
12768;SDS011;6448;48.916;8.990;2023-04-25T06:27:17;1.60;;;1.50;;
12768;SDS011;6448;48.916;8.990;2023-04-25T06:28:19;2.13;;;1.92;;
12768;SDS011;6448;48.916;8.990;2023-04-25T06:29:22;1.90;;;1.80;;
12768;SDS011;6448;48.916;8.990;2023-04-25T06:30:24;1.88;;;1.70;;
12768;SDS011;6448;48.916;8.990;2023-04-25T06:31:30;1.92;;;1.75;;
12768;SDS011;6448;48.916;8.990;2023-04-25T06:32:35;1.60;;;1.50;;
12768;SDS011;6448;48.916;8.990;2023-04-25T06:33:36;1.80;;;1.70;;
12768;SDS011;6448;48.916;8.990;2023-04-25T06:34:38;1.90;;;1.80;;
12768;SDS011;6448;48.916;8.990;2023-04-25T06:35:40;2.00;;;1.90;;
12768;SDS011;6448;48.916;8.990;2023-04-25T06:36:45;2.10;;;1.90;;
12768;SDS011;6448;48.916;8.990;2023-04-25T06:37:48;2.05;;;1.73;;